Time;durP1;ratioP1;P1;durP2;ratioP2;P2;SDS_P1;SDS_P2;PMS_P1;PMS_P2;Temp;Humidity;BMP_temperature;BMP_pressure;BME280_temperature;BME280_humidity;BME280_pressure;Samples;Min_cycle;Max_cycle;Signal;HPM_P1;HPM_P2
2022/07/18 00:00:23;;;;;;;;;;;;;;;24.37;32.09;100138.50;3160573;28;19924;-66
2022/07/18 00:01:54;;;;;;;;;;;;;;;24.36;31.78;100132.34;3160320;28;20320;-65
2022/07/18 00:03:26;;;;;;;;;;;;;;;24.31;32.05;100131.94;3160350;28;19924;-65
2022/07/18 00:04:58;;;;;;;;;;;;;;;24.27;32.08;100139.41;3160431;28;19924;-66
2022/07/18 00:06:28;;;;;;;;;;;;;;;24.25;32.12;100136.06;3160304;28;19924;-66
2022/07/18 00:08:01;;;;;;;;;;;;;;;24.23;32.19;100145.19;3160506;28;19932;-65
2022/07/18 00:09:32;;;;;;;;;;;;;;;24.18;32.19;100150.94;3160494;28;19924;-65
2022/07/18 00:11:03;;;;;;;;;;;;;;;24.15;32.12;100143.25;3160323;28;19925;-66
2022/07/18 00:12:35;;;;;;;;;;;;;;;24.13;32.20;100139.91;3160360;28;20431;-65
2022/07/18 00:14:06;;;;;;;;;;;;;;;24.10;31.74;100145.53;3160445;28;19928;-65
2022/07/18 00:15:38;;;;;;;;;;;;;;;24.10;31.93;100140.19;3159977;28;20063;-65
2022/07/18 00:17:09;;;;;;;;;;;;;;;24.07;32.04;100148.47;3160070;28;19924;-66
2022/07/18 00:18:41;;;;;;;;;;;;;;;24.04;31.62;100148.78;3154239;28;20321;-66
2022/07/18 00:20:13;;;;;;;;;;;;;;;23.98;31.53;100147.53;3160229;28;19924;-66
2022/07/18 00:21:44;;;;;;;;;;;;;;;23.97;31.56;100148.53;3160089;28;20356;-66
2022/07/18 00:23:17;;;;;;;;;;;;;;;23.98;31.56;100141.38;3160085;28;19928;-65
2022/07/18 00:24:48;;;;;;;;;;;;;;;23.97;31.21;100145.88;3160311;28;19924;-66
2022/07/18 00:26:20;;;;;;;;;;;;;;;23.94;31.22;100155.97;3160259;28;19931;-66
2022/07/18 00:27:51;;;;;;;;;;;;;;;23.89;31.18;100148.41;3159866;28;19928;-66
2022/07/18 00:29:23;;;;;;;;;;;;;;;23.84;30.67;100151.53;3160163;28;19924;-66
2022/07/18 00:30:54;;;;;;;;;;;;;;;23.80;30.88;100150.13;3160154;28;20011;-66
2022/07/18 00:32:26;;;;;;;;;;;;;;;23.81;30.63;100145.66;3160456;28;19924;-66
2022/07/18 00:33:57;;;;;;;;;;;;;;;23.80;30.25;100149.31;3160107;28;19931;-66
2022/07/18 00:35:29;;;;;;;;;;;;;;;23.77;29.91;100144.28;3159959;28;19924;-66
2022/07/18 00:37:00;;;;;;;;;;;;;;;23.70;29.92;100144.03;3171649;28;19931;-66
2022/07/18 00:38:33;;;;;;;;;;;;;;;23.68;29.75;100153.09;3160162;28;19928;-65
2022/07/18 00:40:06;;;;;;;;;;;;;;;23.64;29.85;100149.06;3159854;28;19936;-66
2022/07/18 00:41:37;;;;;;;;;;;;;;;23.61;29.75;100153.69;3160036;28;19935;-66
2022/07/18 00:43:09;;;;;;;;;;;;;;;23.58;29.41;100150.47;3159946;28;19924;-66
2022/07/18 00:44:40;;;;;;;;;;;;;;;23.55;29.57;100151.59;3165337;28;19936;-65
2022/07/18 00:46:12;;;;;;;;;;;;;;;23.55;29.46;100156.09;3159967;28;19935;-66
2022/07/18 00:47:43;;;;;;;;;;;;;;;23.53;29.45;100158.03;3159673;28;20405;-66
2022/07/18 00:49:15;;;;;;;;;;;;;;;23.52;29.33;100151.06;3160146;28;20325;-66
2022/07/18 00:50:47;;;;;;;;;;;;;;;23.50;29.20;100158.31;3159853;28;19928;-66
2022/07/18 00:52:19;;;;;;;;;;;;;;;23.47;29.17;100155.97;3159804;28;19924;-66
2022/07/18 00:53:52;;;;;;;;;;;;;;;23.43;29.46;100158.06;3159865;28;19931;-66
2022/07/18 00:55:23;;;;;;;;;;;;;;;23.38;29.21;100147.84;3159654;28;19924;-66
2022/07/18 00:56:55;;;;;;;;;;;;;;;23.37;29.12;100153.31;3159639;28;19924;-65
2022/07/18 00:58:27;;;;;;;;;;;;;;;23.33;28.90;100146.59;3159870;28;19928;-67
2022/07/18 01:01:47;;;;;;;;;;;;;;;23.27;29.15;100158.63;3159849;28;20011;-66
2022/07/18 01:03:18;;;;;;;;;;;;;;;23.25;29.16;100159.75;3159399;28;20415;-65
2022/07/18 01:04:50;;;;;;;;;;;;;;;23.23;28.96;100154.59;3159622;28;20341;-65
2022/07/18 01:06:22;;;;;;;;;;;;;;;23.22;29.10;100155.59;3159688;28;20326;-65
2022/07/18 01:07:53;;;;;;;;;;;;;;;23.22;29.18;100154.72;3159682;28;20294;-66
2022/07/18 01:09:25;;;;;;;;;;;;;;;23.22;28.98;100160.91;3159337;28;19931;-66
2022/07/18 01:10:57;;;;;;;;;;;;;;;23.20;28.93;100160.19;3159689;28;19986;-66
2022/07/18 01:12:28;;;;;;;;;;;;;;;23.17;29.13;100165.78;3159457;28;19924;-66
2022/07/18 01:14:01;;;;;;;;;;;;;;;23.13;28.95;100169.69;3159687;28;19947;-66
2022/07/18 01:15:32;;;;;;;;;;;;;;;23.12;29.15;100165.38;3159526;28;19928;-65
2022/07/18 01:17:12;;;;;;;;;;;;;;;23.08;28.97;100164.81;3159591;28;19928;-66
2022/07/18 01:18:45;;;;;;;;;;;;;;;23.08;29.24;100159.50;3159628;28;19932;-66
2022/07/18 01:20:16;;;;;;;;;;;;;;;23.06;29.08;100160.63;3159291;28;19924;-66
2022/07/18 01:21:48;;;;;;;;;;;;;;;23.03;29.18;100161.75;3159586;28;19924;-66
2022/07/18 01:23:20;;;;;;;;;;;;;;;23.02;29.13;100161.91;3159075;28;19924;-66
2022/07/18 01:24:51;;;;;;;;;;;;;;;22.98;29.28;100158.66;3159772;28;19978;-66
2022/07/18 01:26:23;;;;;;;;;;;;;;;22.94;29.06;100152.81;3159242;28;19924;-65
2022/07/18 01:27:56;;;;;;;;;;;;;;;22.90;29.19;100161.16;3159040;28;19928;-66
2022/07/18 01:29:28;;;;;;;;;;;;;;;22.86;29.34;100160.59;3159343;28;20014;-65
2022/07/18 01:30:59;;;;;;;;;;;;;;;22.84;29.39;100157.25;3159369;28;20312;-65
2022/07/18 01:32:31;;;;;;;;;;;;;;;22.85;29.20;100158.91;3159896;28;20261;-66
2022/07/18 01:34:02;;;;;;;;;;;;;;;22.82;29.50;100153.88;3159390;28;19924;-66
2022/07/18 01:35:34;;;;;;;;;;;;;;;22.86;29.29;100159.75;3159126;28;19924;-66
2022/07/18 01:37:07;;;;;;;;;;;;;;;22.84;29.33;100154.59;3171691;28;19924;-66
2022/07/18 01:38:39;;;;;;;;;;;;;;;22.83;29.50;100154.72;3159383;28;20381;-66
2022/07/18 01:40:11;;;;;;;;;;;;;;;22.82;29.53;100161.03;3165410;28;19924;-66
2022/07/18 01:41:43;;;;;;;;;;;;;;;22.81;29.42;100168.16;3161406;28;19924;-66
2022/07/18 01:43:14;;;;;;;;;;;;;;;22.81;29.51;100162.00;3159317;28;19968;-66
2022/07/18 01:44:46;;;;;;;;;;;;;;;22.81;29.62;100159.34;3159097;28;19977;-66
2022/07/18 01:46:17;;;;;;;;;;;;;;;22.83;29.57;100160.03;3159040;28;20437;-66
2022/07/18 01:47:49;;;;;;;;;;;;;;;22.80;29.69;100161.16;3158406;28;19924;-66
2022/07/18 01:49:20;;;;;;;;;;;;;;;22.80;29.83;100166.44;3159014;28;19925;-66
2022/07/18 01:50:52;;;;;;;;;;;;;;;22.79;29.90;100159.47;3159162;28;20015;-66
2022/07/18 01:52:25;;;;;;;;;;;;;;;22.75;30.09;100166.06;3159097;28;19940;-66
2022/07/18 01:53:59;;;;;;;;;;;;;;;22.74;30.03;100167.00;3159364;28;19935;-66
2022/07/18 01:55:29;;;;;;;;;;;;;;;22.71;30.23;100165.47;3158839;28;19924;-66
2022/07/18 01:57:02;;;;;;;;;;;;;;;22.67;30.19;100168.56;3158738;28;19931;-66
2022/07/18 01:58:33;;;;;;;;;;;;;;;22.64;30.37;100171.50;3158969;28;20401;-66
2022/07/18 02:00:06;;;;;;;;;;;;;;;22.63;30.37;100168.00;3158937;28;19989;-66
2022/07/18 02:01:36;;;;;;;;;;;;;;;22.61;30.58;100166.44;3158725;28;20378;-67
2022/07/18 02:03:08;;;;;;;;;;;;;;;22.59;30.49;100163.91;3158879;28;20053;-66
2022/07/18 02:06:28;;;;;;;;;;;;;;;22.58;30.67;100172.03;3159205;28;19924;-66
2022/07/18 02:08:01;;;;;;;;;;;;;;;22.54;30.88;100175.94;3158824;28;20232;-66
2022/07/18 02:09:32;;;;;;;;;;;;;;;22.48;30.85;100170.22;3158802;28;20361;-66
2022/07/18 02:11:03;;;;;;;;;;;;;;;22.50;30.97;100172.72;3158765;28;19949;-66
2022/07/18 02:12:36;;;;;;;;;;;;;;;22.47;30.95;100175.63;3146418;28;19924;-66
2022/07/18 02:14:07;;;;;;;;;;;;;;;22.43;31.38;100182.22;3157675;28;19950;-66
2022/07/18 02:15:39;;;;;;;;;;;;;;;22.39;31.18;100179.00;3158803;28;19932;-66
2022/07/18 02:17:09;;;;;;;;;;;;;;;22.40;31.43;100175.34;3158955;28;19932;-66
2022/07/18 02:18:41;;;;;;;;;;;;;;;22.40;31.33;100179.81;3158815;28;19924;-66
2022/07/18 02:20:13;;;;;;;;;;;;;;;22.36;31.42;100181.06;3158664;28;19928;-66
2022/07/18 02:21:44;;;;;;;;;;;;;;;22.36;31.56;100181.91;3158689;28;20359;-66
2022/07/18 02:23:17;;;;;;;;;;;;;;;22.35;31.68;100177.56;3158709;28;19949;-66
2022/07/18 02:24:48;;;;;;;;;;;;;;;22.37;31.52;100188.91;3158596;28;19931;-66
2022/07/18 02:26:20;;;;;;;;;;;;;;;22.38;31.69;100187.91;3158764;28;19924;-66
2022/07/18 02:27:52;;;;;;;;;;;;;;;22.37;31.90;100186.25;3158752;28;19928;-66
2022/07/18 02:29:22;;;;;;;;;;;;;;;22.34;31.85;100190.97;3158906;28;19924;-66
2022/07/18 02:30:54;;;;;;;;;;;;;;;22.30;32.01;100184.25;3158712;28;20006;-66
2022/07/18 02:32:26;;;;;;;;;;;;;;;22.31;32.00;100191.25;3158808;28;19928;-66
2022/07/18 02:33:57;;;;;;;;;;;;;;;22.28;32.22;100189.72;3158685;28;19971;-66
2022/07/18 02:35:29;;;;;;;;;;;;;;;22.22;32.29;100187.59;3158874;28;19931;-66
2022/07/18 02:37:00;;;;;;;;;;;;;;;22.18;32.56;100192.34;3169666;28;20040;-66
2022/07/18 02:38:33;;;;;;;;;;;;;;;22.14;32.71;100196.19;3158716;28;19927;-66
2022/07/18 02:40:06;;;;;;;;;;;;;;;22.10;32.77;100188.66;3158559;28;19924;-66
2022/07/18 02:41:37;;;;;;;;;;;;;;;22.02;33.13;100192.78;3158707;28;19959;-66
2022/07/18 02:43:09;;;;;;;;;;;;;;;22.00;33.17;100199.19;3158434;28;19924;-66
2022/07/18 02:44:40;;;;;;;;;;;;;;;21.97;33.22;100194.16;3158384;28;19924;-66
2022/07/18 02:46:12;;;;;;;;;;;;;;;21.94;33.25;100189.94;3158674;28;19951;-66
2022/07/18 02:47:43;;;;;;;;;;;;;;;21.92;33.29;100199.03;3158407;28;19947;-66
2022/07/18 02:49:26;;;;;;;;;;;;;;;21.92;33.38;100201.69;3158444;28;19947;-66
2022/07/18 02:50:58;;;;;;;;;;;;;;;21.94;33.12;100205.03;3158534;28;19924;-66
2022/07/18 02:52:29;;;;;;;;;;;;;;;21.95;33.17;100202.25;3158410;28;19947;-66
2022/07/18 02:54:01;;;;;;;;;;;;;;;21.95;33.22;100204.06;3158604;28;19924;-66
2022/07/18 02:55:33;;;;;;;;;;;;;;;21.96;33.25;100208.41;3158295;28;20538;-66
2022/07/18 02:57:05;;;;;;;;;;;;;;;21.97;33.29;100210.06;3158196;28;19985;-66
2022/07/18 02:58:35;;;;;;;;;;;;;;;21.97;33.33;100208.25;3158734;28;19928;-66
2022/07/18 03:00:09;;;;;;;;;;;;;;;21.98;33.15;100209.13;3158090;28;19967;-66
2022/07/18 03:01:39;;;;;;;;;;;;;;;21.99;33.16;100206.31;3158157;28;19935;-66
2022/07/18 03:03:11;;;;;;;;;;;;;;;21.99;33.20;100206.31;3158385;28;20664;-66
2022/07/18 03:04:42;;;;;;;;;;;;;;;21.95;33.14;100201.41;3158509;28;19924;-66
2022/07/18 03:06:13;;;;;;;;;;;;;;;21.93;33.10;100206.84;3158507;28;19924;-66
2022/07/18 03:07:44;;;;;;;;;;;;;;;21.89;33.32;100196.63;3158356;28;19976;-66
2022/07/18 03:09:18;;;;;;;;;;;;;;;21.85;33.49;100206.66;3158423;28;19928;-66
2022/07/18 03:10:49;;;;;;;;;;;;;;;21.81;33.50;100206.09;3158518;28;19931;-66
2022/07/18 03:12:21;;;;;;;;;;;;;;;21.79;33.46;100209.84;3158188;28;19947;-66
2022/07/18 03:13:51;;;;;;;;;;;;;;;21.76;33.26;100210.09;3158067;28;19924;-66
2022/07/18 03:15:23;;;;;;;;;;;;;;;21.72;33.65;100208.69;3158674;28;20393;-66
2022/07/18 03:16:54;;;;;;;;;;;;;;;21.69;33.63;100206.31;3158295;28;19989;-66
2022/07/18 03:18:25;;;;;;;;;;;;;;;21.69;33.55;100211.59;3158210;28;19924;-66
2022/07/18 03:19:57;;;;;;;;;;;;;;;21.65;33.64;100211.03;3158322;28;20011;-66
2022/07/18 03:21:29;;;;;;;;;;;;;;;21.64;33.48;100205.84;3158214;28;20318;-66
2022/07/18 03:23:05;;;;;;;;;;;;;;;21.63;33.46;100207.66;3158289;28;19963;-66
2022/07/18 03:24:38;;;;;;;;;;;;;;;21.62;33.31;100207.78;3158371;28;20027;-66
2022/07/18 03:26:09;;;;;;;;;;;;;;;21.60;33.41;100202.63;3158088;28;20428;-66
2022/07/18 03:27:41;;;;;;;;;;;;;;;21.59;33.25;100206.22;3158438;28;20358;-66
2022/07/18 03:29:13;;;;;;;;;;;;;;;21.57;33.39;100209.03;3158177;28;19924;-66
2022/07/18 03:30:44;;;;;;;;;;;;;;;21.56;33.25;100206.50;3158166;28;20393;-66
2022/07/18 03:32:15;;;;;;;;;;;;;;;21.57;33.20;100208.19;3158453;28;19932;-66
2022/07/18 03:33:47;;;;;;;;;;;;;;;21.56;33.17;100207.34;3158053;28;20361;-66
2022/07/18 03:35:18;;;;;;;;;;;;;;;21.57;33.18;100211.66;3158339;28;19928;-66
2022/07/18 03:36:50;;;;;;;;;;;;;;;21.58;33.27;100207.22;3168506;28;19981;-66
2022/07/18 03:38:20;;;;;;;;;;;;;;;21.62;33.30;100208.63;3159848;28;19950;-66
2022/07/18 03:39:53;;;;;;;;;;;;;;;21.62;33.00;100210.44;3158290;28;19924;-66
2022/07/18 03:41:25;;;;;;;;;;;;;;;21.60;32.95;100207.09;3158002;28;19924;-66
2022/07/18 03:42:57;;;;;;;;;;;;;;;21.60;32.97;100207.94;3158219;28;19935;-66
2022/07/18 03:44:27;;;;;;;;;;;;;;;21.62;32.94;100207.78;3158268;28;20004;-66
2022/07/18 03:45:59;;;;;;;;;;;;;;;21.61;32.68;100214.06;3158159;28;20007;-66
2022/07/18 03:47:30;;;;;;;;;;;;;;;21.62;32.42;100210.44;3158264;28;19924;-67
2022/07/18 03:49:02;;;;;;;;;;;;;;;21.64;32.33;100214.63;3158105;28;19928;-66
2022/07/18 03:50:33;;;;;;;;;;;;;;;21.66;32.30;100215.34;3158300;28;19931;-67
2022/07/18 03:52:05;;;;;;;;;;;;;;;21.69;32.24;100209.78;3158199;28;20007;-67
2022/07/18 03:53:36;;;;;;;;;;;;;;;21.72;32.14;100212.19;3158008;28;19932;-67
2022/07/18 03:55:09;;;;;;;;;;;;;;;21.76;32.05;100218.06;3157999;28;20390;-67
2022/07/18 03:56:41;;;;;;;;;;;;;;;21.77;32.00;100214.44;3158046;28;19925;-67
2022/07/18 03:58:11;;;;;;;;;;;;;;;21.78;31.89;100216.97;3158013;28;19928;-66
2022/07/18 03:59:43;;;;;;;;;;;;;;;21.82;31.84;100220.19;3158201;28;19935;-66
2022/07/18 04:01:13;;;;;;;;;;;;;;;21.84;31.85;100223.56;3158159;28;19931;-66
2022/07/18 04:02:46;;;;;;;;;;;;;;;21.87;31.70;100219.81;3157916;28;20369;-67
2022/07/18 04:04:18;;;;;;;;;;;;;;;21.90;31.65;100219.53;3157960;28;19935;-67
2022/07/18 04:05:49;;;;;;;;;;;;;;;21.92;31.62;100226.38;3158090;28;19935;-67
2022/07/18 04:07:21;;;;;;;;;;;;;;;21.94;31.46;100228.88;3158171;28;20000;-66
2022/07/18 04:08:52;;;;;;;;;;;;;;;21.95;31.51;100228.78;3157989;28;19982;-67
2022/07/18 04:10:25;;;;;;;;;;;;;;;21.97;31.36;100232.13;3157848;28;19989;-66
2022/07/18 04:11:57;;;;;;;;;;;;;;;22.01;31.55;100235.38;3159793;28;19935;-66
2022/07/18 04:13:29;;;;;;;;;;;;;;;22.01;31.42;100235.38;3160783;28;19924;-67
2022/07/18 04:14:59;;;;;;;;;;;;;;;22.02;31.35;100232.56;3160207;28;19924;-66
2022/07/18 04:16:31;;;;;;;;;;;;;;;22.06;31.16;100234.94;3160348;28;19924;-66
2022/07/18 04:18:01;;;;;;;;;;;;;;;22.05;31.09;100231.47;3160276;28;19928;-66
2022/07/18 04:19:34;;;;;;;;;;;;;;;22.07;31.08;100231.34;3160299;28;20371;-66
2022/07/18 04:21:05;;;;;;;;;;;;;;;22.10;31.21;100231.09;3160508;28;19924;-66
2022/07/18 04:22:44;;;;;;;;;;;;;;;22.10;30.93;100228.44;3160055;28;19955;-67
2022/07/18 04:24:15;;;;;;;;;;;;;;;22.09;30.80;100229.38;3160090;28;19924;-67
2022/07/18 04:25:48;;;;;;;;;;;;;;;22.08;30.77;100227.72;3160244;28;19932;-67
2022/07/18 04:27:20;;;;;;;;;;;;;;;22.09;30.75;100232.88;3159992;28;20357;-66
2022/07/18 04:28:51;;;;;;;;;;;;;;;22.12;30.60;100232.59;3162721;28;19924;-66
2022/07/18 04:30:24;;;;;;;;;;;;;;;22.12;30.62;100237.91;3159963;28;20389;-66
2022/07/18 04:31:56;;;;;;;;;;;;;;;22.13;30.38;100236.13;3160818;28;20413;-66
2022/07/18 04:33:27;;;;;;;;;;;;;;;22.13;30.70;100239.59;3160046;28;19943;-66
2022/07/18 04:34:58;;;;;;;;;;;;;;;22.12;30.62;100240.56;3159936;28;19993;-66
2022/07/18 04:36:29;;;;;;;;;;;;;;;22.13;30.58;100236.13;3167567;28;19983;-67
2022/07/18 04:38:01;;;;;;;;;;;;;;;22.16;30.55;100238.50;3164648;28;20346;-66
2022/07/18 04:39:31;;;;;;;;;;;;;;;22.19;30.59;100240.94;3159917;28;20429;-66
2022/07/18 04:41:05;;;;;;;;;;;;;;;22.20;30.35;100243.44;3159946;28;20007;-66
2022/07/18 04:42:37;;;;;;;;;;;;;;;22.25;30.27;100248.34;3160062;28;19971;-66
2022/07/18 04:44:08;;;;;;;;;;;;;;;22.26;30.03;100253.50;3159871;28;19931;-67
2022/07/18 04:45:40;;;;;;;;;;;;;;;22.26;30.06;100242.06;3159792;28;20324;-66
2022/07/18 04:47:12;;;;;;;;;;;;;;;22.29;29.83;100248.91;3159852;28;20348;-67
2022/07/18 04:48:43;;;;;;;;;;;;;;;22.31;29.82;100250.47;3159945;28;20355;-66
2022/07/18 04:50:15;;;;;;;;;;;;;;;22.34;29.82;100258.16;3159857;28;20317;-66
2022/07/18 04:51:46;;;;;;;;;;;;;;;22.38;29.70;100261.38;3159701;28;20386;-67
2022/07/18 04:53:18;;;;;;;;;;;;;;;22.41;29.65;100259.28;3160143;28;19927;-67
2022/07/18 04:54:50;;;;;;;;;;;;;;;22.47;29.90;100266.72;3159599;28;19931;-67
2022/07/18 04:56:23;;;;;;;;;;;;;;;22.46;29.84;100259.72;3159825;28;19928;-67
2022/07/18 04:57:55;;;;;;;;;;;;;;;22.51;29.62;100271.75;3160036;28;19924;-65
2022/07/18 04:59:25;;;;;;;;;;;;;;;22.53;29.59;100270.63;3159864;28;20298;-66
2022/07/18 05:00:57;;;;;;;;;;;;;;;22.58;29.93;100268.44;3163046;28;19934;-65
2022/07/18 05:02:27;;;;;;;;;;;;;;;22.61;29.77;100276.13;3159692;28;20014;-65
2022/07/18 05:03:59;;;;;;;;;;;;;;;22.63;29.38;100278.66;3159575;28;19994;-65
2022/07/18 05:05:31;;;;;;;;;;;;;;;22.65;29.50;100282.00;3159690;28;19947;-66
2022/07/18 05:07:02;;;;;;;;;;;;;;;22.69;29.61;100280.78;3159491;28;19977;-66
2022/07/18 05:08:34;;;;;;;;;;;;;;;22.74;29.54;100278.53;3159513;28;19924;-67
2022/07/18 05:10:07;;;;;;;;;;;;;;;22.78;29.46;100285.25;3159783;28;19931;-66
2022/07/18 05:11:40;;;;;;;;;;;;;;;22.75;29.38;100284.69;3159734;28;20393;-66
2022/07/18 05:13:12;;;;;;;;;;;;;;;22.77;29.53;100283.56;3159784;28;19963;-66
2022/07/18 05:14:43;;;;;;;;;;;;;;;22.82;29.62;100284.00;3159442;28;20392;-65
2022/07/18 05:16:15;;;;;;;;;;;;;;;22.84;29.54;100281.22;3159621;28;19924;-66
2022/07/18 05:17:45;;;;;;;;;;;;;;;22.89;29.75;100282.50;3159793;28;19928;-66
2022/07/18 05:19:17;;;;;;;;;;;;;;;22.94;29.68;100282.06;3159286;28;19978;-65
2022/07/18 05:20:49;;;;;;;;;;;;;;;22.97;29.57;100291.63;3159342;28;19928;-65
2022/07/18 05:22:20;;;;;;;;;;;;;;;22.98;29.68;100287.97;3159501;28;19963;-65
2022/07/18 05:23:52;;;;;;;;;;;;;;;22.98;29.48;100287.97;3159331;28;19927;-65
2022/07/18 05:25:23;;;;;;;;;;;;;;;23.00;29.71;100286.03;3165241;28;20365;-65
2022/07/18 05:26:56;;;;;;;;;;;;;;;23.05;29.90;100286.47;3159398;28;20006;-65
2022/07/18 05:28:28;;;;;;;;;;;;;;;23.08;29.83;100283.53;3159421;28;19928;-65
2022/07/18 05:30:00;;;;;;;;;;;;;;;23.11;29.91;100283.25;3159410;28;20426;-65
2022/07/18 05:31:31;;;;;;;;;;;;;;;23.14;29.60;100285.63;3159405;28;20393;-65
2022/07/18 05:33:03;;;;;;;;;;;;;;;23.18;29.55;100289.69;3160207;28;20312;-65
2022/07/18 05:34:35;;;;;;;;;;;;;;;23.22;29.78;100291.09;3159401;28;20355;-65
2022/07/18 05:36:07;;;;;;;;;;;;;;;23.27;29.71;100285.34;3163697;28;19992;-65
2022/07/18 05:37:38;;;;;;;;;;;;;;;23.27;29.69;100291.50;3167087;28;19947;-65
2022/07/18 05:39:10;;;;;;;;;;;;;;;23.33;29.60;100287.44;3159570;28;19930;-65
2022/07/18 05:40:41;;;;;;;;;;;;;;;23.34;29.44;100284.66;3159273;28;19954;-65
2022/07/18 05:42:14;;;;;;;;;;;;;;;23.27;29.30;100272.91;3159457;28;19924;-65
2022/07/18 05:43:46;;;;;;;;;;;;;;;23.39;29.03;100300.19;3159306;28;19935;-65
2022/07/18 05:45:18;;;;;;;;;;;;;;;23.39;29.00;100292.19;3159312;28;19928;-65
2022/07/18 05:46:50;;;;;;;;;;;;;;;23.36;29.05;100287.16;3159216;28;20309;-65
2022/07/18 05:48:21;;;;;;;;;;;;;;;23.34;28.81;100284.66;3159104;28;20005;-65
2022/07/18 05:49:53;;;;;;;;;;;;;;;23.36;28.84;100279.19;3159335;28;19924;-66
2022/07/18 05:51:24;;;;;;;;;;;;;;;23.41;29.13;100279.63;3159190;28;20340;-66
2022/07/18 05:52:56;;;;;;;;;;;;;;;23.49;29.41;100281.59;3159021;28;20408;-66
2022/07/18 05:54:28;;;;;;;;;;;;;;;23.55;29.31;100286.34;3158976;28;20289;-66
2022/07/18 05:55:59;;;;;;;;;;;;;;;23.61;29.46;100277.81;3158811;28;19924;-66
2022/07/18 05:57:32;;;;;;;;;;;;;;;23.62;29.53;100280.31;3159156;28;19924;-66
2022/07/18 05:59:04;;;;;;;;;;;;;;;23.64;29.07;100276.69;3159134;28;19924;-66
2022/07/18 06:00:36;;;;;;;;;;;;;;;23.62;29.38;100274.97;3158877;28;20419;-66
2022/07/18 06:02:07;;;;;;;;;;;;;;;23.66;29.21;100272.88;3158903;28;19950;-66
2022/07/18 06:03:39;;;;;;;;;;;;;;;23.70;28.73;100265.50;3159077;28;19924;-66
2022/07/18 06:05:10;;;;;;;;;;;;;;;23.73;28.79;100273.19;3158819;28;19931;-66
2022/07/18 06:06:41;;;;;;;;;;;;;;;23.78;28.79;100269.13;3158938;28;20389;-66
2022/07/18 06:08:13;;;;;;;;;;;;;;;23.86;28.62;100264.91;3159183;28;20321;-66
2022/07/18 06:09:43;;;;;;;;;;;;;;;23.95;28.63;100259.56;3158791;28;19924;-66
2022/07/18 06:11:15;;;;;;;;;;;;;;;24.02;28.81;100258.00;3158825;28;20018;-66
2022/07/18 06:12:49;;;;;;;;;;;;;;;24.04;29.01;100256.03;3158872;28;19935;-66
2022/07/18 06:14:21;;;;;;;;;;;;;;;24.07;28.40;100265.53;3159271;28;19930;-66
2022/07/18 06:15:53;;;;;;;;;;;;;;;24.05;28.50;100254.22;3158808;28;20511;-66
2022/07/18 06:17:24;;;;;;;;;;;;;;;24.05;28.70;100256.88;3158775;28;20367;-66
2022/07/18 06:18:56;;;;;;;;;;;;;;;24.07;28.36;100249.56;3158682;28;19924;-66
2022/07/18 06:20:28;;;;;;;;;;;;;;;24.12;28.07;100263.28;3158501;28;19931;-66
2022/07/18 06:22:00;;;;;;;;;;;;;;;24.15;28.09;100263.00;3163193;28;19931;-66
2022/07/18 06:23:31;;;;;;;;;;;;;;;24.19;27.98;100260.88;3158709;28;19964;-66
2022/07/18 06:25:04;;;;;;;;;;;;;;;24.25;27.98;100258.50;3158822;28;19928;-66
2022/07/18 06:26:35;;;;;;;;;;;;;;;24.31;27.67;100259.69;3158744;28;20309;-66
2022/07/18 06:28:08;;;;;;;;;;;;;;;24.37;27.90;100266.25;3158828;28;20393;-66
2022/07/18 06:29:40;;;;;;;;;;;;;;;24.42;27.86;100259.56;3159741;28;19925;-66
2022/07/18 06:31:14;;;;;;;;;;;;;;;24.49;27.64;100260.66;3163897;28;20388;-66
2022/07/18 06:32:46;;;;;;;;;;;;;;;24.55;28.07;100269.88;3159652;28;19924;-66
2022/07/18 06:34:17;;;;;;;;;;;;;;;24.58;27.79;100263.41;3157968;28;19969;-66
2022/07/18 06:35:49;;;;;;;;;;;;;;;24.62;27.96;100256.81;3160476;28;19924;-66
2022/07/18 06:37:21;;;;;;;;;;;;;;;24.71;28.23;100261.22;3169054;28;19927;-66
2022/07/18 06:38:53;;;;;;;;;;;;;;;24.79;28.16;100253.34;3158700;28;19939;-66
2022/07/18 06:40:25;;;;;;;;;;;;;;;24.89;28.13;100258.59;3158739;28;20441;-66
2022/07/18 06:41:56;;;;;;;;;;;;;;;24.94;28.25;100259.81;3158576;28;19924;-66
2022/07/18 06:43:29;;;;;;;;;;;;;;;25.02;27.80;100260.88;3158733;28;20286;-66
2022/07/18 06:45:01;;;;;;;;;;;;;;;25.06;27.20;100263.09;3158398;28;19936;-66
2022/07/18 06:46:32;;;;;;;;;;;;;;;25.10;27.04;100261.78;3158443;28;19935;-66
2022/07/18 06:48:04;;;;;;;;;;;;;;;25.15;27.21;100264.88;3158371;28;19940;-66
2022/07/18 06:49:35;;;;;;;;;;;;;;;25.21;27.17;100257.28;3158767;28;19924;-66
2022/07/18 06:51:08;;;;;;;;;;;;;;;25.23;27.20;100265.94;3158446;28;19928;-66
2022/07/18 06:52:40;;;;;;;;;;;;;;;25.27;26.88;100259.34;3158467;28;19928;-66
2022/07/18 06:54:12;;;;;;;;;;;;;;;25.28;26.74;100256.50;3158430;28;19935;-66
2022/07/18 06:55:43;;;;;;;;;;;;;;;25.33;27.03;100256.06;3158445;28;19931;-66
2022/07/18 06:57:15;;;;;;;;;;;;;;;25.40;26.92;100257.09;3158534;28;19931;-65
2022/07/18 06:58:50;;;;;;;;;;;;;;;25.49;27.30;100263.34;3158211;28;19928;-65
2022/07/18 07:00:21;;;;;;;;;;;;;;;25.53;27.21;100256.72;3158099;28;20428;-65
2022/07/18 07:01:53;;;;;;;;;;;;;;;25.61;27.03;100262.09;3158180;28;19989;-66
2022/07/18 07:03:24;;;;;;;;;;;;;;;25.71;26.64;100259.34;3158238;28;19947;-66
2022/07/18 07:04:56;;;;;;;;;;;;;;;25.78;26.45;100260.38;3158317;28;20317;-65
2022/07/18 07:06:27;;;;;;;;;;;;;;;25.85;26.37;100265.00;3158438;28;19924;-66
2022/07/18 07:07:59;;;;;;;;;;;;;;;25.92;26.45;100257.19;3158351;28;19997;-65
2022/07/18 07:09:31;;;;;;;;;;;;;;;25.98;25.87;100263.72;3158450;28;19931;-66
2022/07/18 07:11:02;;;;;;;;;;;;;;;26.03;26.10;100256.06;3158347;28;19935;-65
2022/07/18 07:12:38;;;;;;;;;;;;;;;26.06;26.38;100259.28;3158508;28;19924;-66
2022/07/18 07:14:11;;;;;;;;;;;;;;;26.12;26.20;100262.28;3158408;28;19928;-65
2022/07/18 07:15:43;;;;;;;;;;;;;;;26.15;26.64;100253.97;3158268;28;19947;-65
2022/07/18 07:17:14;;;;;;;;;;;;;;;26.22;26.70;100253.16;3160835;28;19932;-65
2022/07/18 07:18:46;;;;;;;;;;;;;;;26.30;26.83;100257.72;3163405;28;19928;-65
2022/07/18 07:20:20;;;;;;;;;;;;;;;26.38;26.44;100256.91;3158316;28;19928;-65
2022/07/18 07:21:52;;;;;;;;;;;;;;;26.47;26.59;100256.81;3158286;28;19986;-66
2022/07/18 07:23:23;;;;;;;;;;;;;;;26.54;26.59;100262.38;3158446;28;19974;-65
2022/07/18 07:24:55;;;;;;;;;;;;;;;26.63;26.38;100258.72;3158425;28;19924;-65
2022/07/18 07:26:26;;;;;;;;;;;;;;;26.73;26.54;100250.56;3158238;28;19924;-65
2022/07/18 07:27:58;;;;;;;;;;;;;;;26.81;25.99;100247.91;3158319;28;20020;-65
2022/07/18 07:29:31;;;;;;;;;;;;;;;26.90;25.68;100252.28;3158434;28;19928;-65
2022/07/18 07:31:03;;;;;;;;;;;;;;;26.98;25.47;100254.13;3158156;28;20443;-65
2022/07/18 07:32:35;;;;;;;;;;;;;;;27.08;25.40;100253.97;3159154;28;19997;-65
2022/07/18 07:34:07;;;;;;;;;;;;;;;27.16;25.75;100249.50;3158265;28;20014;-66
2022/07/18 07:35:38;;;;;;;;;;;;;;;27.23;25.36;100249.66;3158675;28;19966;-65
2022/07/18 07:37:10;;;;;;;;;;;;;;;27.35;25.64;100242.16;3170124;28;20402;-65
2022/07/18 07:38:41;;;;;;;;;;;;;;;27.44;25.13;100255.34;3158328;28;20679;-65
2022/07/18 07:40:13;;;;;;;;;;;;;;;27.56;24.96;100249.66;3158350;28;20373;-65
2022/07/18 07:41:44;;;;;;;;;;;;;;;27.65;24.38;100254.00;3158395;28;19924;-65
2022/07/18 07:43:16;;;;;;;;;;;;;;;27.61;23.74;100255.34;3158213;28;19925;-65
2022/07/18 07:44:49;;;;;;;;;;;;;;;27.59;23.93;100249.31;3158041;28;19924;-65
2022/07/18 07:46:21;;;;;;;;;;;;;;;27.63;24.22;100250.69;3158909;28;19925;-65
2022/07/18 07:47:53;;;;;;;;;;;;;;;27.67;24.05;100243.97;3160696;28;19936;-66
2022/07/18 07:49:24;;;;;;;;;;;;;;;27.73;24.16;100253.16;3160417;28;19993;-65
2022/07/18 07:50:56;;;;;;;;;;;;;;;27.79;24.09;100247.16;3160402;28;19998;-65
2022/07/18 07:52:28;;;;;;;;;;;;;;;27.86;24.16;100248.13;3160561;28;19928;-65
2022/07/18 07:54:00;;;;;;;;;;;;;;;27.89;23.68;100245.97;3160570;28;20011;-66